Time;durP1;ratioP1;P1;durP2;ratioP2;P2;SDS_P1;SDS_P2;PMS_P1;PMS_P2;Temp;Humidity;BMP_temperature;BMP_pressure;BME280_temperature;BME280_humidity;BME280_pressure;Samples;Min_cycle;Max_cycle;Signal;HPM_P1;HPM_P2
2022/04/06 00:01:53;;;;;;;1.23;0.80;;;;;;;;;;5017643;28;20096;-82
2022/04/06 00:04:18;;;;;;;2.65;0.80;;;;;;;;;;5017051;28;20040;-82
2022/04/06 00:06:44;;;;;;;1.13;0.90;;;;;;;;;;5017994;28;20453;-82
2022/04/06 00:09:09;;;;;;;1.58;0.93;;;;;;;;;;5018550;28;20038;-82
2022/04/06 00:11:34;;;;;;;1.17;0.90;;;;;;;;;;5017366;28;20040;-82
2022/04/06 00:13:59;;;;;;;1.58;0.90;;;;;;;;;;5017481;28;20129;-82
2022/04/06 00:16:25;;;;;;;1.67;1.00;;;;;;;;;;5017394;28;20029;-82
2022/04/06 00:18:51;;;;;;;1.55;1.10;;;;;;;;;;5016973;28;20073;-82
2022/04/06 00:21:16;;;;;;;1.60;1.05;;;;;;;;;;5016933;28;20472;-82
2022/04/06 00:23:41;;;;;;;1.92;0.90;;;;;;;;;;5017441;28;20080;-82
2022/04/06 00:26:07;;;;;;;1.10;0.85;;;;;;;;;;5017115;28;20387;-82
2022/04/06 00:28:32;;;;;;;2.33;0.82;;;;;;;;;;5015822;28;20030;-82
2022/04/06 00:30:57;;;;;;;1.60;0.90;;;;;;;;;;5049011;28;20033;-82
2022/04/06 00:33:22;;;;;;;1.27;0.90;;;;;;;;;;5016974;28;20136;-82
2022/04/06 00:35:48;;;;;;;1.02;0.88;;;;;;;;;;5048572;28;20092;-82
2022/04/06 00:38:13;;;;;;;0.70;0.70;;;;;;;;;;5016977;28;20120;-82
2022/04/06 00:40:39;;;;;;;1.45;0.80;;;;;;;;;;5016574;28;20045;-80
2022/04/06 00:43:04;;;;;;;1.77;0.90;;;;;;;;;;5016718;28;20041;-82
2022/04/06 00:45:29;;;;;;;1.17;0.93;;;;;;;;;;5016504;28;20105;-82
2022/04/06 00:47:55;;;;;;;2.28;0.90;;;;;;;;;;5017088;28;20032;-82
2022/04/06 00:50:20;;;;;;;0.90;0.80;;;;;;;;;;5015753;28;20108;-82
2022/04/06 00:52:45;;;;;;;1.10;0.90;;;;;;;;;;5014908;28;20420;-82
2022/04/06 00:55:11;;;;;;;1.10;0.90;;;;;;;;;;5015899;28;20041;-82
2022/04/06 00:57:37;;;;;;;1.38;0.90;;;;;;;;;;5015920;28;20046;-82
2022/04/06 01:00:03;;;;;;;1.33;0.98;;;;;;;;;;5016537;28;20038;-82
2022/04/06 01:02:28;;;;;;;0.75;0.70;;;;;;;;;;5016398;28;20048;-82
2022/04/06 01:04:53;;;;;;;0.80;0.80;;;;;;;;;;5015993;28;20244;-82
2022/04/06 01:07:18;;;;;;;0.73;0.70;;;;;;;;;;5016193;28;20092;-82
2022/04/06 01:09:44;;;;;;;1.55;0.82;;;;;;;;;;5016054;28;20069;-82
2022/04/06 01:12:09;;;;;;;0.95;0.90;;;;;;;;;;5016303;28;20090;-82
2022/04/06 01:14:34;;;;;;;1.52;0.80;;;;;;;;;;5015663;28;20450;-82
2022/04/06 01:17:00;;;;;;;1.48;0.80;;;;;;;;;;5016116;28;20068;-82
2022/04/06 01:19:25;;;;;;;1.25;0.80;;;;;;;;;;5015929;28;20044;-83
2022/04/06 01:21:50;;;;;;;0.82;0.70;;;;;;;;;;5016064;28;20045;-83
2022/04/06 01:24:15;;;;;;;2.70;0.68;;;;;;;;;;5016143;28;20034;-82
2022/04/06 01:26:41;;;;;;;0.65;0.65;;;;;;;;;;5020284;28;20187;-83
2022/04/06 01:29:06;;;;;;;1.58;0.77;;;;;;;;;;5053384;28;20041;-82
2022/04/06 01:31:31;;;;;;;0.93;0.70;;;;;;;;;;5022538;28;20034;-83
2022/04/06 01:33:56;;;;;;;1.38;0.98;;;;;;;;;;5052040;28;20041;-82
2022/04/06 01:36:22;;;;;;;1.27;1.00;;;;;;;;;;5022840;28;20041;-83
2022/04/06 01:38:47;;;;;;;1.95;0.93;;;;;;;;;;5016081;28;20041;-82
2022/04/06 01:41:12;;;;;;;1.00;0.90;;;;;;;;;;5015555;28;20041;-82
2022/04/06 01:43:37;;;;;;;0.80;0.80;;;;;;;;;;5015815;28;20033;-82
2022/04/06 01:46:03;;;;;;;1.00;0.90;;;;;;;;;;5015356;28;20116;-82
2022/04/06 01:48:29;;;;;;;0.80;0.80;;;;;;;;;;5015528;28;20060;-82
2022/04/06 01:53:38;;;;;;;2.50;0.80;;;;;;;;;;5015151;28;20060;-82
2022/04/06 01:56:03;;;;;;;1.00;0.90;;;;;;;;;;5014968;28;20026;-82
2022/04/06 01:58:29;;;;;;;1.42;0.90;;;;;;;;;;5018816;28;20073;-82
2022/04/06 02:00:54;;;;;;;0.73;0.73;;;;;;;;;;5019698;28;20034;-82
2022/04/06 02:03:19;;;;;;;1.10;0.88;;;;;;;;;;5035198;28;20498;-82
2022/04/06 02:05:46;;;;;;;1.88;0.80;;;;;;;;;;5015353;28;20077;-82
2022/04/06 02:08:11;;;;;;;1.15;0.80;;;;;;;;;;5017897;28;20160;-82
2022/04/06 02:10:39;;;;;;;2.03;1.05;;;;;;;;;;5015761;28;20510;-82
2022/04/06 02:13:04;;;;;;;2.28;0.80;;;;;;;;;;5018127;28;20060;-82
2022/04/06 02:15:30;;;;;;;0.80;0.70;;;;;;;;;;5014964;28;20033;-82
2022/04/06 02:17:55;;;;;;;1.10;0.70;;;;;;;;;;5014809;28;20025;-83
2022/04/06 02:20:20;;;;;;;1.55;0.82;;;;;;;;;;5046551;28;20521;-83
2022/04/06 02:22:46;;;;;;;1.30;0.90;;;;;;;;;;5013801;28;20030;-82
2022/04/06 02:25:15;;;;;;;1.20;0.88;;;;;;;;;;5047559;28;20340;-82
2022/04/06 02:27:40;;;;;;;1.48;0.88;;;;;;;;;;5046804;28;20072;-82
2022/04/06 02:30:05;;;;;;;0.70;0.70;;;;;;;;;;5030617;28;20034;-82
2022/04/06 02:32:30;;;;;;;1.27;0.80;;;;;;;;;;5046911;28;20037;-82
2022/04/06 02:34:56;;;;;;;0.68;0.68;;;;;;;;;;5014115;28;20049;-82
2022/04/06 02:37:21;;;;;;;0.80;0.80;;;;;;;;;;5046724;28;20037;-82
2022/04/06 02:39:49;;;;;;;1.23;0.82;;;;;;;;;;5014970;28;20034;-82
2022/04/06 02:42:14;;;;;;;1.42;0.90;;;;;;;;;;5014983;28;20132;-82
2022/04/06 02:44:40;;;;;;;1.17;1.00;;;;;;;;;;5014330;28;20050;-82
2022/04/06 02:47:05;;;;;;;1.30;0.90;;;;;;;;;;5014483;28;20037;-82
2022/04/06 02:49:30;;;;;;;1.10;1.00;;;;;;;;;;5014440;28;20061;-82
2022/04/06 02:51:55;;;;;;;0.90;0.90;;;;;;;;;;5014336;28;20041;-82
2022/04/06 02:54:21;;;;;;;1.05;0.90;;;;;;;;;;5013702;28;20041;-82
2022/04/06 02:56:46;;;;;;;1.00;0.70;;;;;;;;;;5014267;28;20097;-82
2022/04/06 02:59:12;;;;;;;0.50;0.50;;;;;;;;;;5046569;28;20513;-82
2022/04/06 03:01:37;;;;;;;0.60;0.60;;;;;;;;;;5014138;28;20041;-82
2022/04/06 03:04:02;;;;;;;0.80;0.73;;;;;;;;;;5014305;28;20117;-82
2022/04/06 03:06:27;;;;;;;1.00;0.88;;;;;;;;;;5014205;28;20037;-82
2022/04/06 03:08:53;;;;;;;0.95;0.75;;;;;;;;;;5016077;28;20034;-82
2022/04/06 03:11:18;;;;;;;0.82;0.80;;;;;;;;;;5018575;28;20030;-82
2022/04/06 03:13:43;;;;;;;1.13;0.77;;;;;;;;;;5018187;28;20553;-82
2022/04/06 03:16:08;;;;;;;0.90;0.80;;;;;;;;;;5018245;28;20398;-82
2022/04/06 03:18:34;;;;;;;0.95;0.80;;;;;;;;;;5019518;28;20042;-82
2022/04/06 03:20:59;;;;;;;1.20;0.80;;;;;;;;;;5050116;28;20103;-82
2022/04/06 03:23:24;;;;;;;0.70;0.70;;;;;;;;;;5018078;28;20065;-82
2022/04/06 03:25:49;;;;;;;1.10;0.90;;;;;;;;;;5050036;28;20042;-82
2022/04/06 03:28:15;;;;;;;0.90;0.80;;;;;;;;;;5018220;28;20034;-82
2022/04/06 03:30:40;;;;;;;1.00;0.90;;;;;;;;;;5018396;28;20387;-82
2022/04/06 03:33:06;;;;;;;1.52;1.00;;;;;;;;;;5017077;28;20125;-82
2022/04/06 03:35:32;;;;;;;1.00;0.90;;;;;;;;;;5049893;28;20037;-82
2022/04/06 03:37:57;;;;;;;1.35;1.02;;;;;;;;;;5017792;28;20030;-82
2022/04/06 03:40:22;;;;;;;1.85;1.00;;;;;;;;;;5017725;28;20042;-82
2022/04/06 03:42:47;;;;;;;1.17;0.90;;;;;;;;;;5050178;28;20054;-82
2022/04/06 03:45:13;;;;;;;1.60;1.20;;;;;;;;;;5049116;28;20093;-82
2022/04/06 03:47:38;;;;;;;1.58;1.20;;;;;;;;;;5049854;28;20045;-82
2022/04/06 03:50:03;;;;;;;1.40;1.00;;;;;;;;;;5017953;28;20030;-82
2022/04/06 03:52:28;;;;;;;1.52;1.20;;;;;;;;;;5017501;28;20081;-82
2022/04/06 03:54:54;;;;;;;2.80;1.17;;;;;;;;;;5017120;28;20038;-82
2022/04/06 03:57:19;;;;;;;3.33;1.30;;;;;;;;;;5017084;28;20033;-82
2022/04/06 03:59:44;;;;;;;2.22;1.30;;;;;;;;;;5017224;28;20505;-82
2022/04/06 04:02:09;;;;;;;1.90;1.30;;;;;;;;;;5018789;28;20041;-83
2022/04/06 04:04:35;;;;;;;1.60;1.25;;;;;;;;;;5018549;28;20038;-82
2022/04/06 04:07:01;;;;;;;1.83;1.30;;;;;;;;;;5018113;28;20098;-83
2022/04/06 04:09:26;;;;;;;1.83;1.15;;;;;;;;;;5018608;28;20065;-82
2022/04/06 04:11:52;;;;;;;3.30;1.38;;;;;;;;;;5017747;28;20034;-82
2022/04/06 04:14:17;;;;;;;2.00;1.48;;;;;;;;;;5048482;28;20038;-81
2022/04/06 04:16:42;;;;;;;1.75;1.35;;;;;;;;;;5017226;28;20044;-81
2022/04/06 04:19:07;;;;;;;2.10;1.50;;;;;;;;;;5015815;28;20087;-82
2022/04/06 04:21:33;;;;;;;3.42;1.50;;;;;;;;;;5048648;28;20034;-81
2022/04/06 04:23:58;;;;;;;3.17;1.60;;;;;;;;;;5048413;28;20521;-81
2022/04/06 04:26:23;;;;;;;3.65;1.65;;;;;;;;;;5016322;28;20045;-82
2022/04/06 04:28:48;;;;;;;1.83;1.40;;;;;;;;;;5015850;28;20018;-81
2022/04/06 04:31:14;;;;;;;2.10;1.67;;;;;;;;;;5015759;28;20493;-81
2022/04/06 04:33:39;;;;;;;2.50;1.50;;;;;;;;;;5015756;28;20037;-81
2022/04/06 04:36:04;;;;;;;4.63;2.25;;;;;;;;;;5047505;28;20117;-81
2022/04/06 04:38:29;;;;;;;2.83;2.10;;;;;;;;;;5015521;28;20045;-81
2022/04/06 04:40:55;;;;;;;2.20;1.63;;;;;;;;;;5015610;28;20033;-81
2022/04/06 04:43:20;;;;;;;4.15;2.25;;;;;;;;;;5047429;28;20549;-81
2022/04/06 04:45:45;;;;;;;2.65;1.65;;;;;;;;;;5015573;28;20033;-81
2022/04/06 04:48:11;;;;;;;2.50;1.65;;;;;;;;;;5015684;28;20500;-82
2022/04/06 04:50:36;;;;;;;2.10;1.52;;;;;;;;;;5015720;28;20038;-81
2022/04/06 04:53:01;;;;;;;2.22;1.63;;;;;;;;;;5014608;28;20091;-81
2022/04/06 04:55:26;;;;;;;1.80;1.30;;;;;;;;;;5015253;28;20042;-81
2022/04/06 04:57:52;;;;;;;1.90;1.50;;;;;;;;;;5014717;28;20029;-81
2022/04/06 05:00:17;;;;;;;3.42;2.30;;;;;;;;;;5047732;28;20097;-81
2022/04/06 05:02:42;;;;;;;7.00;3.20;;;;;;;;;;5015851;28;20041;-81
2022/04/06 05:05:07;;;;;;;7.13;3.90;;;;;;;;;;5016464;28;20038;-81
2022/04/06 05:07:37;;;;;;;4.25;2.75;;;;;;;;;;5016707;28;20038;-81
2022/04/06 05:10:02;;;;;;;3.20;2.35;;;;;;;;;;5015314;28;20034;-82
2022/04/06 05:12:27;;;;;;;6.90;4.00;;;;;;;;;;5016566;28;20113;-82
2022/04/06 05:14:53;;;;;;;5.82;3.03;;;;;;;;;;5047386;28;20045;-81
2022/04/06 05:17:18;;;;;;;3.40;2.05;;;;;;;;;;5030395;28;20029;-81
2022/04/06 05:19:43;;;;;;;2.88;1.80;;;;;;;;;;5014621;28;20455;-81
2022/04/06 05:22:09;;;;;;;2.92;1.77;;;;;;;;;;5014622;28;20045;-81
2022/04/06 05:24:34;;;;;;;2.42;1.58;;;;;;;;;;5014146;28;20412;-81
2022/04/06 05:27:00;;;;;;;3.05;2.10;;;;;;;;;;5014609;28;20108;-81
2022/04/06 05:29:25;;;;;;;3.53;2.00;;;;;;;;;;5014657;28;20049;-81
2022/04/06 05:31:50;;;;;;;3.72;1.80;;;;;;;;;;5013339;28;20026;-82
2022/04/06 05:34:16;;;;;;;2.30;1.60;;;;;;;;;;5014113;28;20670;-81
2022/04/06 05:36:41;;;;;;;2.58;1.90;;;;;;;;;;5014534;28;20030;-81
2022/04/06 05:39:08;;;;;;;2.92;1.80;;;;;;;;;;5014226;28;20084;-81
2022/04/06 05:41:33;;;;;;;2.38;1.60;;;;;;;;;;5014192;28;20042;-81
2022/04/06 05:43:58;;;;;;;2.78;1.60;;;;;;;;;;5014071;28;20044;-81
2022/04/06 05:46:24;;;;;;;2.08;1.20;;;;;;;;;;5014453;28;20034;-81
2022/04/06 05:48:49;;;;;;;1.40;1.10;;;;;;;;;;5014489;28;20104;-81
2022/04/06 05:51:15;;;;;;;3.22;2.20;;;;;;;;;;5014216;28;20462;-81
2022/04/06 05:53:40;;;;;;;2.67;1.58;;;;;;;;;;5012945;28;20037;-81
2022/04/06 05:56:05;;;;;;;2.33;1.50;;;;;;;;;;5013804;28;20141;-82
2022/04/06 05:58:30;;;;;;;2.10;1.50;;;;;;;;;;5014279;28;20042;-82
2022/04/06 06:00:56;;;;;;;3.35;1.60;;;;;;;;;;5029236;28;20544;-81
2022/04/06 06:03:21;;;;;;;3.15;1.80;;;;;;;;;;5014079;28;20042;-82
2022/04/06 06:05:46;;;;;;;2.47;1.58;;;;;;;;;;5013629;28;20040;-81
2022/04/06 06:08:11;;;;;;;3.55;1.98;;;;;;;;;;5013811;28;20042;-81
2022/04/06 06:10:37;;;;;;;3.03;1.60;;;;;;;;;;5012682;28;20040;-82
2022/04/06 06:13:02;;;;;;;1.98;1.38;;;;;;;;;;5013790;28;20045;-81
2022/04/06 06:15:27;;;;;;;2.05;1.40;;;;;;;;;;5013585;28;20510;-81
2022/04/06 06:17:53;;;;;;;2.53;1.90;;;;;;;;;;5013792;28;20062;-82
2022/04/06 06:20:18;;;;;;;3.22;1.90;;;;;;;;;;5013589;28;20041;-81
2022/04/06 06:22:43;;;;;;;3.92;1.90;;;;;;;;;;5045805;28;20041;-85
2022/04/06 06:25:08;;;;;;;2.63;1.67;;;;;;;;;;5045278;28;20052;-81
2022/04/06 06:27:34;;;;;;;1.60;1.35;;;;;;;;;;5013817;28;20490;-81
2022/04/06 06:29:59;;;;;;;2.45;1.30;;;;;;;;;;5045969;28;20033;-82
2022/04/06 06:32:24;;;;;;;3.45;1.17;;;;;;;;;;5029774;28;20038;-82
2022/04/06 06:34:49;;;;;;;2.22;1.40;;;;;;;;;;5045538;28;20065;-82
2022/04/06 06:37:15;;;;;;;1.75;1.33;;;;;;;;;;5014893;28;20500;-82
2022/04/06 06:39:40;;;;;;;2.17;1.38;;;;;;;;;;5013716;28;20034;-82
2022/04/06 06:42:05;;;;;;;4.43;2.00;;;;;;;;;;5014365;28;20076;-83
2022/04/06 06:44:30;;;;;;;3.75;2.55;;;;;;;;;;5013020;28;20026;-82
2022/04/06 06:46:56;;;;;;;1.88;1.30;;;;;;;;;;5014245;28;20105;-83
2022/04/06 06:49:21;;;;;;;4.53;2.65;;;;;;;;;;5014283;28;20049;-83
2022/04/06 06:51:46;;;;;;;1.50;1.20;;;;;;;;;;5012811;28;20501;-84
2022/04/06 06:54:11;;;;;;;1.90;1.35;;;;;;;;;;5013349;28;20038;-84
2022/04/06 06:56:37;;;;;;;1.60;1.17;;;;;;;;;;5012367;28;20030;-83
2022/04/06 06:59:02;;;;;;;3.15;1.27;;;;;;;;;;5014208;28;20555;-83
2022/04/06 07:01:27;;;;;;;3.30;0.90;;;;;;;;;;5014099;28;20379;-83
2022/04/06 07:03:52;;;;;;;2.65;0.93;;;;;;;;;;5014521;28;20040;-83
2022/04/06 07:06:18;;;;;;;1.27;1.10;;;;;;;;;;5014026;28;20065;-83
2022/04/06 07:08:43;;;;;;;1.35;1.10;;;;;;;;;;5014249;28;20049;-83
2022/04/06 07:11:08;;;;;;;2.03;0.90;;;;;;;;;;5045552;28;20113;-82
2022/04/06 07:13:33;;;;;;;1.15;0.90;;;;;;;;;;5013502;28;20034;-82
2022/04/06 07:15:59;;;;;;;1.10;1.00;;;;;;;;;;5014571;28;20109;-83
2022/04/06 07:18:24;;;;;;;2.08;1.30;;;;;;;;;;5013307;28;20034;-83
2022/04/06 07:20:49;;;;;;;0.82;0.73;;;;;;;;;;5046165;28;20069;-83
2022/04/06 07:23:14;;;;;;;0.73;0.63;;;;;;;;;;5045452;28;20034;-82
2022/04/06 07:25:40;;;;;;;1.30;0.80;;;;;;;;;;5045391;28;20041;-83
2022/04/06 07:28:05;;;;;;;3.33;1.00;;;;;;;;;;5014205;28;20040;-83
2022/04/06 07:30:30;;;;;;;1.23;0.98;;;;;;;;;;5013963;28;20113;-82
2022/04/06 07:32:57;;;;;;;1.90;0.68;;;;;;;;;;5046353;28;20100;-83
2022/04/06 07:35:23;;;;;;;2.03;0.73;;;;;;;;;;5014135;28;20033;-83
2022/04/06 07:37:48;;;;;;;1.95;0.60;;;;;;;;;;5014732;28;20405;-82
2022/04/06 07:40:13;;;;;;;1.58;0.80;;;;;;;;;;5029597;28;20053;-82
2022/04/06 07:42:38;;;;;;;1.45;0.80;;;;;;;;;;5015259;28;20046;-84
2022/04/06 07:45:04;;;;;;;5.90;0.80;;;;;;;;;;5014148;28;20038;-85
2022/04/06 07:47:30;;;;;;;12.40;1.85;;;;;;;;;;5046770;28;20041;-83
2022/04/06 07:49:55;;;;;;;2.60;0.70;;;;;;;;;;5014643;28;20026;-83
2022/04/06 07:52:22;;;;;;;1.00;0.80;;;;;;;;;;5013857;28;20120;-83
2022/04/06 07:54:47;;;;;;;4.30;1.00;;;;;;;;;;5031435;28;20065;-82
2022/04/06 07:57:12;;;;;;;2.05;0.85;;;;;;;;;;5049713;28;20068;-82
2022/04/06 07:59:37;;;;;;;1.80;0.70;;;;;;;;;;5017587;28;20038;-84
2022/04/06 08:02:03;;;;;;;1.20;0.68;;;;;;;;;;5016173;28;20037;-84
2022/04/06 08:04:28;;;;;;;1.65;0.80;;;;;;;;;;5049330;28;20061;-84
2022/04/06 08:06:53;;;;;;;3.33;0.90;;;;;;;;;;5018177;28;20033;-82
2022/04/06 08:09:18;;;;;;;1.08;0.60;;;;;;;;;;5018309;28;20030;-82
2022/04/06 08:11:44;;;;;;;3.55;0.80;;;;;;;;;;5017765;28;20025;-82
2022/04/06 08:14:09;;;;;;;1.00;0.60;;;;;;;;;;5017585;28;20042;-82
2022/04/06 08:16:35;;;;;;;0.50;0.50;;;;;;;;;;5029401;28;20091;-84
2022/04/06 08:19:01;;;;;;;2.63;0.40;;;;;;;;;;5034122;28;20037;-82
2022/04/06 08:21:26;;;;;;;2.45;0.60;;;;;;;;;;5029715;28;20034;-82
2022/04/06 08:23:52;;;;;;;0.88;0.40;;;;;;;;;;5053686;22;20049;-88
2022/04/06 08:29:09;;;;;;;1.55;0.65;;;;;;;;;;5054673;28;20136;-84
2022/04/06 08:31:34;;;;;;;6.38;0.82;;;;;;;;;;5060378;28;20067;-84
2022/04/06 08:34:00;;;;;;;2.95;0.80;;;;;;;;;;5059568;28;20063;-85
2022/04/06 08:36:43;;;;;;;0.70;0.70;;;;;;;;;;5059696;28;20028;-84
2022/04/06 08:39:09;;;;;;;1.65;1.00;;;;;;;;;;5058907;28;20037;-85
2022/04/06 08:41:34;;;;;;;1.30;0.70;;;;;;;;;;5059034;28;20044;-85
2022/04/06 08:43:59;;;;;;;1.98;1.05;;;;;;;;;;5060648;28;20374;-84
2022/04/06 08:46:24;;;;;;;1.90;0.98;;;;;;;;;;5058648;28;20029;-85
2022/04/06 08:48:51;;;;;;;1.27;0.90;;;;;;;;;;5058479;28;20035;-84
2022/04/06 08:51:17;;;;;;;2.33;0.75;;;;;;;;;;5058685;28;20500;-84
2022/04/06 08:53:42;;;;;;;2.67;0.70;;;;;;;;;;5059002;28;20052;-84
2022/04/06 08:56:07;;;;;;;0.93;0.55;;;;;;;;;;5057617;28;20094;-84
2022/04/06 08:58:32;;;;;;;1.85;1.00;;;;;;;;;;5058518;28;20025;-84
2022/04/06 09:00:58;;;;;;;0.98;0.60;;;;;;;;;;5066596;28;20060;-84
2022/04/06 09:03:23;;;;;;;1.02;0.63;;;;;;;;;;5062404;28;20041;-81
2022/04/06 09:05:48;;;;;;;1.02;0.80;;;;;;;;;;5057046;28;20557;-82
2022/04/06 09:08:13;;;;;;;0.95;0.50;;;;;;;;;;5061095;28;20029;-82
2022/04/06 09:10:39;;;;;;;5.00;0.60;;;;;;;;;;5059489;28;20037;-82
2022/04/06 09:13:04;;;;;;;1.05;0.60;;;;;;;;;;5059396;28;20033;-83
2022/04/06 09:15:29;;;;;;;0.73;0.52;;;;;;;;;;5057721;28;20044;-84
2022/04/06 09:17:54;;;;;;;0.77;0.50;;;;;;;;;;5051923;28;20429;-83
2022/04/06 09:20:20;;;;;;;0.95;0.73;;;;;;;;;;5057110;28;20076;-83
2022/04/06 09:22:45;;;;;;;0.52;0.45;;;;;;;;;;5056565;28;20048;-82
2022/04/06 09:25:10;;;;;;;0.70;0.57;;;;;;;;;;5058993;28;20061;-83
2022/04/06 09:27:36;;;;;;;0.85;0.52;;;;;;;;;;5058620;28;20396;-84
2022/04/06 09:30:01;;;;;;;0.40;0.40;;;;;;;;;;5058684;28;20037;-84
2022/04/06 09:32:26;;;;;;;0.30;0.30;;;;;;;;;;5058125;28;20040;-84
2022/04/06 09:34:52;;;;;;;0.50;0.50;;;;;;;;;;5051150;28;20065;-82
2022/04/06 09:37:17;;;;;;;0.70;0.40;;;;;;;;;;5038777;28;20030;-84
2022/04/06 09:39:42;;;;;;;0.47;0.30;;;;;;;;;;5037968;28;20478;-83
2022/04/06 09:42:08;;;;;;;0.32;0.30;;;;;;;;;;5043133;28;20034;-84
2022/04/06 09:50:01;;;;;;;0.28;0.20;;;;;;;;;;5037019;28;20064;-84
2022/04/06 09:52:27;;;;;;;0.17;0.17;;;;;;;;;;5044854;28;20022;-84
2022/04/06 09:54:52;;;;;;;1.23;0.40;;;;;;;;;;5054358;28;20329;-83
2022/04/06 09:57:17;;;;;;;0.20;0.20;;;;;;;;;;5039269;28;20072;-84
2022/04/06 09:59:42;;;;;;;0.35;0.35;;;;;;;;;;5055035;28;20048;-84
2022/04/06 10:02:07;;;;;;;1.70;1.20;;;;;;;;;;5054465;28;20154;-83
2022/04/06 10:04:33;;;;;;;0.60;0.40;;;;;;;;;;5038593;28;20053;-83
2022/04/06 10:06:59;;;;;;;0.65;0.60;;;;;;;;;;5054634;28;20069;-84
2022/04/06 10:09:24;;;;;;;0.85;0.75;;;;;;;;;;5039575;28;20069;-85
2022/04/06 10:11:49;;;;;;;5.95;1.27;;;;;;;;;;5038286;28;20397;-84
2022/04/06 10:14:15;;;;;;;0.50;0.45;;;;;;;;;;5052848;28;20064;-83
2022/04/06 10:16:40;;;;;;;0.40;0.40;;;;;;;;;;5054494;28;20481;-84
2022/04/06 10:19:05;;;;;;;3.28;0.30;;;;;;;;;;5038106;28;20040;-83
2022/04/06 10:21:31;;;;;;;0.57;0.43;;;;;;;;;;5038520;28;20041;-83
2022/04/06 10:23:56;;;;;;;0.40;0.40;;;;;;;;;;5053031;28;20276;-84
2022/04/06 10:26:21;;;;;;;0.52;0.30;;;;;;;;;;5039718;28;20048;-84
2022/04/06 10:28:49;;;;;;;1.17;0.50;;;;;;;;;;5041848;28;20036;-84
2022/04/06 10:31:15;;;;;;;0.30;0.30;;;;;;;;;;5040164;28;20280;-84
2022/04/06 10:33:40;;;;;;;0.20;0.20;;;;;;;;;;5040072;28;20339;-84
2022/04/06 10:36:05;;;;;;;0.65;0.52;;;;;;;;;;5040893;28;20032;-83
2022/04/06 10:38:30;;;;;;;2.40;0.60;;;;;;;;;;5035951;28;20505;-84
2022/04/06 10:40:56;;;;;;;0.93;0.32;;;;;;;;;;5042994;28;20048;-84
2022/04/06 10:43:21;;;;;;;0.23;0.23;;;;;;;;;;5049365;28;20080;-85
2022/04/06 10:45:46;;;;;;;0.30;0.30;;;;;;;;;;5038386;28;20279;-83
2022/04/06 10:48:12;;;;;;;0.20;0.20;;;;;;;;;;5057073;28;20021;-83
2022/04/06 10:50:37;;;;;;;0.20;0.20;;;;;;;;;;5055843;28;20025;-84
2022/04/06 10:53:02;;;;;;;0.22;0.20;;;;;;;;;;5057805;28;20052;-84
2022/04/06 10:55:27;;;;;;;0.75;0.20;;;;;;;;;;5057980;28;20045;-84
2022/04/06 10:57:53;;;;;;;0.35;0.30;;;;;;;;;;5057203;28;20039;-83
2022/04/06 11:00:18;;;;;;;1.35;0.20;;;;;;;;;;5056787;28;20122;-83
2022/04/06 11:02:43;;;;;;;0.63;0.30;;;;;;;;;;5056797;28;20480;-84
2022/04/06 11:05:10;;;;;;;0.35;0.20;;;;;;;;;;5058504;28;20480;-85
2022/04/06 11:10:22;;;;;;;0.50;0.40;;;;;;;;;;5058912;28;20401;-83
2022/04/06 11:12:47;;;;;;;0.55;0.50;;;;;;;;;;5059762;28;20045;-84
2022/04/06 11:15:12;;;;;;;0.40;0.40;;;;;;;;;;5057874;28;20048;-84
2022/04/06 11:17:38;;;;;;;;;;;;;;;;;;;;;
2022/04/06 11:20:03;;;;;;;3.20;0.60;;;;;;;;;;5059540;28;20061;-84
2022/04/06 11:22:28;;;;;;;2.42;0.40;;;;;;;;;;5058887;28;20313;-85
2022/04/06 11:24:56;;;;;;;0.73;0.50;;;;;;;;;;5060018;28;20048;-85
2022/04/06 11:27:22;;;;;;;1.00;0.50;;;;;;;;;;5058711;28;20032;-85
2022/04/06 11:29:47;;;;;;;0.63;0.40;;;;;;;;;;5062357;28;20032;-85
2022/04/06 11:32:12;;;;;;;0.52;0.52;;;;;;;;;;5063318;28;20033;-83
2022/04/06 11:34:38;;;;;;;0.70;0.70;;;;;;;;;;5064063;28;20033;-82
2022/04/06 11:37:03;;;;;;;0.68;0.65;;;;;;;;;;5065145;28;20097;-85
2022/04/06 11:39:30;;;;;;;0.77;0.32;;;;;;;;;;5060242;28;20041;-85
2022/04/06 11:41:55;;;;;;;0.28;0.28;;;;;;;;;;5061175;28;20662;-84
2022/04/06 11:44:23;;;;;;;0.40;0.40;;;;;;;;;;5060229;28;20037;-85
2022/04/06 11:46:48;;;;;;;1.08;0.50;;;;;;;;;;5060089;28;20040;-85
2022/04/06 11:49:13;;;;;;;0.50;0.40;;;;;;;;;;5059272;28;20485;-84
2022/04/06 11:51:39;;;;;;;0.30;0.30;;;;;;;;;;5060546;28;20045;-83
2022/04/06 11:54:04;;;;;;;0.52;0.50;;;;;;;;;;5058958;28;20069;-83
2022/04/06 11:56:30;;;;;;;1.55;0.60;;;;;;;;;;5061287;28;20048;-83
2022/04/06 11:58:57;;;;;;;1.85;0.80;;;;;;;;;;5060431;28;20033;-84
2022/04/06 12:01:28;;;;;;;2.72;0.98;;;;;;;;;;5059879;28;20017;-84
2022/04/06 12:03:53;;;;;;;2.78;0.55;;;;;;;;;;5060650;28;20045;-85
2022/04/06 12:06:18;;;;;;;1.40;0.60;;;;;;;;;;5061006;28;20055;-83
2022/04/06 12:08:43;;;;;;;0.85;0.63;;;;;;;;;;5061401;28;20040;-85
2022/04/06 12:11:09;;;;;;;2.00;1.50;;;;;;;;;;5060455;28;20082;-85
2022/04/06 12:13:34;;;;;;;0.40;0.40;;;;;;;;;;5060636;28;20032;-84
2022/04/06 12:15:59;;;;;;;1.17;0.40;;;;;;;;;;5060513;28;20083;-84
2022/04/06 12:18:25;;;;;;;0.47;0.47;;;;;;;;;;5060964;28;20033;-84
2022/04/06 12:20:50;;;;;;;0.70;0.70;;;;;;;;;;5059989;28;20041;-84
2022/04/06 12:23:16;;;;;;;0.75;0.50;;;;;;;;;;5060169;28;20044;-84
2022/04/06 12:25:41;;;;;;;2.63;0.60;;;;;;;;;;5058752;28;20029;-85
2022/04/06 12:28:07;;;;;;;1.20;0.70;;;;;;;;;;5059445;28;20028;-83
2022/04/06 12:30:32;;;;;;;2.03;1.60;;;;;;;;;;5062907;28;20048;-84
2022/04/06 12:32:57;;;;;;;2.75;1.13;;;;;;;;;;5059874;28;20035;-85
2022/04/06 12:35:26;;;;;;;1.48;0.90;;;;;;;;;;5064787;28;20063;-83
2022/04/06 12:37:51;;;;;;;1.83;0.70;;;;;;;;;;5061719;28;20090;-85
2022/04/06 12:40:16;;;;;;;1.38;0.80;;;;;;;;;;5062073;28;20036;-84
2022/04/06 12:42:41;;;;;;;2.47;1.50;;;;;;;;;;5061826;28;20108;-85
2022/04/06 12:45:07;;;;;;;1.20;0.90;;;;;;;;;;5060623;28;20029;-85
2022/04/06 12:47:33;;;;;;;1.70;1.00;;;;;;;;;;5061531;28;20044;-85
2022/04/06 12:49:58;;;;;;;1.15;0.70;;;;;;;;;;5062171;28;20048;-86
2022/04/06 12:52:23;;;;;;;2.50;1.50;;;;;;;;;;5060199;28;20039;-84
2022/04/06 12:54:49;;;;;;;2.10;1.58;;;;;;;;;;5058822;28;20037;-84
2022/04/06 12:57:15;;;;;;;1.00;0.77;;;;;;;;;;5058765;28;20056;-84
2022/04/06 12:59:40;;;;;;;0.50;0.50;;;;;;;;;;5059856;28;20508;-84
2022/04/06 13:02:05;;;;;;;1.02;0.95;;;;;;;;;;5058069;28;20051;-85
2022/04/06 13:04:31;;;;;;;1.42;1.10;;;;;;;;;;5059004;28;20036;-84
2022/04/06 13:06:56;;;;;;;3.42;2.33;;;;;;;;;;5059652;28;20504;-84
2022/04/06 13:09:21;;;;;;;1.50;0.80;;;;;;;;;;5060675;28;20048;-85
2022/04/06 13:11:46;;;;;;;0.73;0.70;;;;;;;;;;5060270;28;20041;-83
2022/04/06 13:14:12;;;;;;;1.33;0.90;;;;;;;;;;5060501;28;20116;-84
2022/04/06 13:16:37;;;;;;;1.10;0.70;;;;;;;;;;5057518;28;20024;-83
2022/04/06 13:19:04;;;;;;;1.42;0.70;;;;;;;;;;5059139;28;20029;-85
2022/04/06 13:21:33;;;;;;;1.67;0.80;;;;;;;;;;5059916;28;20593;-84
2022/04/06 13:23:58;;;;;;;0.77;0.70;;;;;;;;;;5059233;28;20051;-84
2022/04/06 13:26:24;;;;;;;1.05;0.70;;;;;;;;;;5060530;28;20127;-84
2022/04/06 13:28:49;;;;;;;0.90;0.80;;;;;;;;;;5060679;28;20501;-84
2022/04/06 13:31:15;;;;;;;1.27;0.70;;;;;;;;;;5065084;28;20414;-83
2022/04/06 13:33:41;;;;;;;1.15;0.80;;;;;;;;;;5059814;28;20556;-80
2022/04/06 13:36:06;;;;;;;0.93;0.80;;;;;;;;;;5057602;28;20079;-84
2022/04/06 13:38:34;;;;;;;1.02;0.60;;;;;;;;;;5057522;28;20417;-85
2022/04/06 13:40:59;;;;;;;1.02;0.50;;;;;;;;;;5059795;28;20025;-85
2022/04/06 13:43:25;;;;;;;0.50;0.50;;;;;;;;;;5058154;28;20405;-85
2022/04/06 13:45:50;;;;;;;0.90;0.60;;;;;;;;;;5057344;28;20029;-85
2022/04/06 13:48:18;;;;;;;1.33;0.70;;;;;;;;;;5058565;28;20029;-84
2022/04/06 13:50:43;;;;;;;1.80;0.70;;;;;;;;;;5059476;28;20063;-84
2022/04/06 13:53:08;;;;;;;0.98;0.57;;;;;;;;;;5058474;28;20037;-84
2022/04/06 13:55:34;;;;;;;2.35;0.70;;;;;;;;;;5068869;28;20041;-86
2022/04/06 13:57:59;;;;;;;0.70;0.70;;;;;;;;;;5064497;28;20032;-85
2022/04/06 14:00:24;;;;;;;0.47;0.47;;;;;;;;;;5061563;28;20041;-84
2022/04/06 14:02:51;;;;;;;1.23;0.70;;;;;;;;;;5059604;28;20065;-85
2022/04/06 14:05:19;;;;;;;4.22;0.90;;;;;;;;;;5060003;28;20033;-86
2022/04/06 14:07:45;;;;;;;3.28;0.70;;;;;;;;;;5062635;28;20037;-84
2022/04/06 14:10:10;;;;;;;1.55;0.80;;;;;;;;;;5063549;28;20029;-84
2022/04/06 14:12:36;;;;;;;1.40;0.68;;;;;;;;;;5061683;28;20111;-82
2022/04/06 14:15:01;;;;;;;0.47;0.47;;;;;;;;;;5062177;28;20040;-83
2022/04/06 14:17:27;;;;;;;1.42;0.82;;;;;;;;;;5062212;28;20067;-83
2022/04/06 14:19:52;;;;;;;1.20;0.60;;;;;;;;;;5061750;28;20083;-85
2022/04/06 14:22:17;;;;;;;0.73;0.73;;;;;;;;;;5060466;28;20127;-81
2022/04/06 14:25:15;;;;;;;2.03;0.98;;;;;;;;;;5088472;22;20402;-82
2022/04/06 14:27:27;;;;;;;1.13;0.90;;;;;;;;;;5053821;28;20135;-83
2022/04/06 14:29:54;;;;;;;1.10;0.80;;;;;;;;;;5055682;28;20067;-83
2022/04/06 14:32:19;;;;;;;2.28;0.82;;;;;;;;;;5054306;28;20029;-83
2022/04/06 14:34:44;;;;;;;1.27;0.82;;;;;;;;;;5054438;28;20044;-83
2022/04/06 14:37:09;;;;;;;2.13;0.80;;;;;;;;;;5056857;28;20550;-83
2022/04/06 14:39:35;;;;;;;1.23;0.73;;;;;;;;;;5038657;28;20490;-83
2022/04/06 14:42:01;;;;;;;3.45;0.82;;;;;;;;;;5056112;28;20041;-83
2022/04/06 14:44:26;;;;;;;0.68;0.68;;;;;;;;;;5055899;28;20029;-83
2022/04/06 14:46:52;;;;;;;1.33;0.90;;;;;;;;;;5055080;28;20449;-83